METAR Data
IDs: Format: Raw Decoded Include TAF

Data at: 1424 UTC 25 Nov 2020

PTRO 251350Z 04004KT 15SM SCT016 SCT120 BKN300 25/23 A2980